sensor_id;sensor_type;location;lat;lon;timestamp;temperature;humidity
35129;DHT22;21301;43.626;10.580;2023-05-16T00:00:18;16.40;99.90
35129;DHT22;21301;43.626;10.580;2023-05-16T00:02:44;16.40;99.90
35129;DHT22;21301;43.626;10.580;2023-05-16T00:05:10;16.40;99.90
35129;DHT22;21301;43.626;10.580;2023-05-16T00:07:44;16.40;99.90
35129;DHT22;21301;43.626;10.580;2023-05-16T00:10:11;16.00;99.90
35129;DHT22;21301;43.626;10.580;2023-05-16T00:12:37;15.90;99.90
35129;DHT22;21301;43.626;10.580;2023-05-16T00:15:08;15.90;99.90
35129;DHT22;21301;43.626;10.580;2023-05-16T00:17:37;15.80;99.90
35129;DHT22;21301;43.626;10.580;2023-05-16T00:20:04;15.90;99.90
35129;DHT22;21301;43.626;10.580;2023-05-16T00:22:32;16.00;99.90
35129;DHT22;21301;43.626;10.580;2023-05-16T00:24:58;15.80;99.90
35129;DHT22;21301;43.626;10.580;2023-05-16T00:27:24;15.60;99.90
35129;DHT22;21301;43.626;10.580;2023-05-16T00:29:50;15.70;99.90
35129;DHT22;21301;43.626;10.580;2023-05-16T00:32:17;15.80;99.90
35129;DHT22;21301;43.626;10.580;2023-05-16T00:34:43;15.60;99.90
35129;DHT22;21301;43.626;10.580;2023-05-16T00:37:08;15.70;99.90
35129;DHT22;21301;43.626;10.580;2023-05-16T00:39:36;15.60;99.90
35129;DHT22;21301;43.626;10.580;2023-05-16T00:42:01;15.80;99.90
35129;DHT22;21301;43.626;10.580;2023-05-16T00:44:27;15.70;99.90
35129;DHT22;21301;43.626;10.580;2023-05-16T00:46:53;15.80;99.90
35129;DHT22;21301;43.626;10.580;2023-05-16T00:49:19;15.90;99.90
35129;DHT22;21301;43.626;10.580;2023-05-16T00:51:46;16.10;99.90
35129;DHT22;21301;43.626;10.580;2023-05-16T00:54:12;16.10;99.90
35129;DHT22;21301;43.626;10.580;2023-05-16T00:56:39;16.30;99.90
35129;DHT22;21301;43.626;10.580;2023-05-16T00:59:05;16.40;99.90
35129;DHT22;21301;43.626;10.580;2023-05-16T01:01:31;16.20;99.90
35129;DHT22;21301;43.626;10.580;2023-05-16T01:03:59;16.00;99.90
35129;DHT22;21301;43.626;10.580;2023-05-16T01:06:26;15.90;99.90
35129;DHT22;21301;43.626;10.580;2023-05-16T01:08:52;15.80;99.90
35129;DHT22;21301;43.626;10.580;2023-05-16T01:11:32;15.80;99.90
35129;DHT22;21301;43.626;10.580;2023-05-16T01:14:22;15.80;99.90
35129;DHT22;21301;43.626;10.580;2023-05-16T01:19:46;15.70;99.90
35129;DHT22;21301;43.626;10.580;2023-05-16T01:25:39;15.80;99.90
35129;DHT22;21301;43.626;10.580;2023-05-16T01:28:14;15.70;99.90
35129;DHT22;21301;43.626;10.580;2023-05-16T01:30:42;15.80;99.90
35129;DHT22;21301;43.626;10.580;2023-05-16T01:33:08;15.80;99.90
35129;DHT22;21301;43.626;10.580;2023-05-16T01:35:52;15.70;99.90
35129;DHT22;21301;43.626;10.580;2023-05-16T01:38:32;15.80;99.90
35129;DHT22;21301;43.626;10.580;2023-05-16T01:43:42;16.00;99.90
35129;DHT22;21301;43.626;10.580;2023-05-16T01:46:20;15.90;99.90
35129;DHT22;21301;43.626;10.580;2023-05-16T01:48:53;15.80;99.90
35129;DHT22;21301;43.626;10.580;2023-05-16T01:51:23;15.80;99.90
35129;DHT22;21301;43.626;10.580;2023-05-16T01:53:56;15.80;99.90
35129;DHT22;21301;43.626;10.580;2023-05-16T01:56:24;15.80;99.90
35129;DHT22;21301;43.626;10.580;2023-05-16T01:58:52;16.00;99.90
35129;DHT22;21301;43.626;10.580;2023-05-16T02:01:18;15.70;99.90
35129;DHT22;21301;43.626;10.580;2023-05-16T02:03:44;15.70;99.90
35129;DHT22;21301;43.626;10.580;2023-05-16T02:06:10;15.60;99.90
35129;DHT22;21301;43.626;10.580;2023-05-16T02:08:36;15.40;99.90
35129;DHT22;21301;43.626;10.580;2023-05-16T02:11:01;15.40;99.90
35129;DHT22;21301;43.626;10.580;2023-05-16T02:13:27;15.70;99.90
35129;DHT22;21301;43.626;10.580;2023-05-16T02:15:53;15.90;99.90
35129;DHT22;21301;43.626;10.580;2023-05-16T02:18:19;16.00;99.90
35129;DHT22;21301;43.626;10.580;2023-05-16T02:20:45;16.30;99.90
35129;DHT22;21301;43.626;10.580;2023-05-16T02:23:10;16.20;99.90
35129;DHT22;21301;43.626;10.580;2023-05-16T02:25:36;16.30;99.90
35129;DHT22;21301;43.626;10.580;2023-05-16T02:28:02;16.30;99.90
35129;DHT22;21301;43.626;10.580;2023-05-16T02:30:28;16.20;99.90
35129;DHT22;21301;43.626;10.580;2023-05-16T02:32:54;16.20;99.90
35129;DHT22;21301;43.626;10.580;2023-05-16T02:35:20;16.40;99.90
35129;DHT22;21301;43.626;10.580;2023-05-16T02:37:46;16.40;99.90
35129;DHT22;21301;43.626;10.580;2023-05-16T02:40:12;16.20;99.90
35129;DHT22;21301;43.626;10.580;2023-05-16T02:42:38;16.00;99.90
35129;DHT22;21301;43.626;10.580;2023-05-16T02:45:04;15.90;99.90
35129;DHT22;21301;43.626;10.580;2023-05-16T02:47:30;15.90;99.90
35129;DHT22;21301;43.626;10.580;2023-05-16T02:49:56;15.80;99.90
35129;DHT22;21301;43.626;10.580;2023-05-16T02:52:22;15.70;99.90
35129;DHT22;21301;43.626;10.580;2023-05-16T02:54:48;15.90;99.90
35129;DHT22;21301;43.626;10.580;2023-05-16T02:57:13;15.40;99.90
35129;DHT22;21301;43.626;10.580;2023-05-16T02:59:39;15.50;99.90
35129;DHT22;21301;43.626;10.580;2023-05-16T03:02:05;15.60;99.90
35129;DHT22;21301;43.626;10.580;2023-05-16T03:04:32;15.70;99.90
35129;DHT22;21301;43.626;10.580;2023-05-16T03:06:58;15.60;99.90
35129;DHT22;21301;43.626;10.580;2023-05-16T03:09:26;15.50;99.90
35129;DHT22;21301;43.626;10.580;2023-05-16T03:11:52;15.40;99.90
35129;DHT22;21301;43.626;10.580;2023-05-16T03:14:18;15.50;99.90
35129;DHT22;21301;43.626;10.580;2023-05-16T03:16:45;15.50;99.90
35129;DHT22;21301;43.626;10.580;2023-05-16T03:19:11;15.70;99.90
35129;DHT22;21301;43.626;10.580;2023-05-16T03:21:38;15.80;99.90
35129;DHT22;21301;43.626;10.580;2023-05-16T03:24:05;15.60;99.90
35129;DHT22;21301;43.626;10.580;2023-05-16T03:26:31;15.90;99.90
35129;DHT22;21301;43.626;10.580;2023-05-16T03:28:56;15.70;99.90
35129;DHT22;21301;43.626;10.580;2023-05-16T03:31:23;15.80;99.90
35129;DHT22;21301;43.626;10.580;2023-05-16T03:33:49;15.80;99.90
35129;DHT22;21301;43.626;10.580;2023-05-16T03:36:15;15.90;99.90
35129;DHT22;21301;43.626;10.580;2023-05-16T03:38:41;15.90;99.90
35129;DHT22;21301;43.626;10.580;2023-05-16T03:41:07;15.90;99.90
35129;DHT22;21301;43.626;10.580;2023-05-16T03:43:33;16.00;99.90
35129;DHT22;21301;43.626;10.580;2023-05-16T03:46:00;15.60;99.90
35129;DHT22;21301;43.626;10.580;2023-05-16T03:48:26;15.80;99.90
35129;DHT22;21301;43.626;10.580;2023-05-16T03:50:52;15.70;99.90
35129;DHT22;21301;43.626;10.580;2023-05-16T03:53:18;15.60;99.90
35129;DHT22;21301;43.626;10.580;2023-05-16T03:55:43;15.60;99.90
35129;DHT22;21301;43.626;10.580;2023-05-16T03:58:09;15.60;99.90
35129;DHT22;21301;43.626;10.580;2023-05-16T04:00:35;15.50;99.90
35129;DHT22;21301;43.626;10.580;2023-05-16T04:03:01;15.50;99.90
35129;DHT22;21301;43.626;10.580;2023-05-16T04:05:27;15.50;99.90
35129;DHT22;21301;43.626;10.580;2023-05-16T04:07:53;15.50;99.90
35129;DHT22;21301;43.626;10.580;2023-05-16T04:10:19;15.50;99.90
35129;DHT22;21301;43.626;10.580;2023-05-16T04:12:45;15.60;99.90
35129;DHT22;21301;43.626;10.580;2023-05-16T04:15:11;15.70;99.90
35129;DHT22;21301;43.626;10.580;2023-05-16T04:17:36;15.90;99.90
35129;DHT22;21301;43.626;10.580;2023-05-16T04:20:02;15.90;99.90
35129;DHT22;21301;43.626;10.580;2023-05-16T04:22:29;16.00;99.90
35129;DHT22;21301;43.626;10.580;2023-05-16T04:24:55;16.00;99.90
35129;DHT22;21301;43.626;10.580;2023-05-16T04:27:21;16.00;99.90
35129;DHT22;21301;43.626;10.580;2023-05-16T04:29:48;15.80;99.90
35129;DHT22;21301;43.626;10.580;2023-05-16T04:32:13;15.80;99.90
35129;DHT22;21301;43.626;10.580;2023-05-16T04:34:39;15.80;99.90
35129;DHT22;21301;43.626;10.580;2023-05-16T04:37:06;15.90;99.90
35129;DHT22;21301;43.626;10.580;2023-05-16T04:39:33;15.70;99.90
35129;DHT22;21301;43.626;10.580;2023-05-16T04:42:00;15.70;99.90
35129;DHT22;21301;43.626;10.580;2023-05-16T04:44:26;15.70;99.90
35129;DHT22;21301;43.626;10.580;2023-05-16T04:46:52;15.90;99.90
35129;DHT22;21301;43.626;10.580;2023-05-16T04:49:21;15.70;99.90
35129;DHT22;21301;43.626;10.580;2023-05-16T04:51:48;15.70;99.90
35129;DHT22;21301;43.626;10.580;2023-05-16T04:54:14;15.80;99.90
35129;DHT22;21301;43.626;10.580;2023-05-16T04:56:40;15.70;99.90
35129;DHT22;21301;43.626;10.580;2023-05-16T04:59:06;15.80;99.90
35129;DHT22;21301;43.626;10.580;2023-05-16T05:01:31;15.60;99.90
35129;DHT22;21301;43.626;10.580;2023-05-16T05:03:57;15.70;99.90
35129;DHT22;21301;43.626;10.580;2023-05-16T05:06:23;15.60;99.90
35129;DHT22;21301;43.626;10.580;2023-05-16T05:08:49;15.70;99.90
35129;DHT22;21301;43.626;10.580;2023-05-16T05:11:15;15.50;99.90
35129;DHT22;21301;43.626;10.580;2023-05-16T05:13:40;15.70;99.90
35129;DHT22;21301;43.626;10.580;2023-05-16T05:16:06;15.70;99.90
35129;DHT22;21301;43.626;10.580;2023-05-16T05:18:33;16.00;99.90
35129;DHT22;21301;43.626;10.580;2023-05-16T05:20:59;16.10;99.90
35129;DHT22;21301;43.626;10.580;2023-05-16T05:23:25;16.20;99.90
35129;DHT22;21301;43.626;10.580;2023-05-16T05:25:51;16.30;99.90
35129;DHT22;21301;43.626;10.580;2023-05-16T05:28:17;16.40;99.90
35129;DHT22;21301;43.626;10.580;2023-05-16T05:30:43;16.40;99.90
35129;DHT22;21301;43.626;10.580;2023-05-16T05:33:10;16.30;99.90
35129;DHT22;21301;43.626;10.580;2023-05-16T05:35:36;16.20;99.90
35129;DHT22;21301;43.626;10.580;2023-05-16T05:38:03;16.10;99.90
35129;DHT22;21301;43.626;10.580;2023-05-16T05:40:29;16.20;99.90
35129;DHT22;21301;43.626;10.580;2023-05-16T05:42:55;16.20;99.90
35129;DHT22;21301;43.626;10.580;2023-05-16T05:45:21;16.30;99.90
35129;DHT22;21301;43.626;10.580;2023-05-16T05:47:47;16.40;99.90
35129;DHT22;21301;43.626;10.580;2023-05-16T05:50:13;16.50;99.90
35129;DHT22;21301;43.626;10.580;2023-05-16T05:52:40;16.50;99.90
35129;DHT22;21301;43.626;10.580;2023-05-16T05:55:06;16.50;99.90
35129;DHT22;21301;43.626;10.580;2023-05-16T05:57:31;16.50;99.90
35129;DHT22;21301;43.626;10.580;2023-05-16T05:59:57;16.60;99.90
35129;DHT22;21301;43.626;10.580;2023-05-16T06:02:23;16.80;99.90
35129;DHT22;21301;43.626;10.580;2023-05-16T06:04:49;16.80;99.90
35129;DHT22;21301;43.626;10.580;2023-05-16T06:07:14;16.60;99.90
35129;DHT22;21301;43.626;10.580;2023-05-16T06:09:41;16.40;99.90
35129;DHT22;21301;43.626;10.580;2023-05-16T06:12:08;16.10;99.90
35129;DHT22;21301;43.626;10.580;2023-05-16T06:14:36;16.20;99.90
35129;DHT22;21301;43.626;10.580;2023-05-16T06:17:02;16.10;99.90
35129;DHT22;21301;43.626;10.580;2023-05-16T06:19:28;16.20;99.90
35129;DHT22;21301;43.626;10.580;2023-05-16T06:21:54;16.30;99.90
35129;DHT22;21301;43.626;10.580;2023-05-16T06:24:20;16.40;99.90
35129;DHT22;21301;43.626;10.580;2023-05-16T06:26:45;16.40;99.90
35129;DHT22;21301;43.626;10.580;2023-05-16T06:29:15;16.50;99.90
35129;DHT22;21301;43.626;10.580;2023-05-16T06:31:40;16.40;99.90
35129;DHT22;21301;43.626;10.580;2023-05-16T06:34:06;16.70;99.90
35129;DHT22;21301;43.626;10.580;2023-05-16T06:36:32;16.80;99.90
35129;DHT22;21301;43.626;10.580;2023-05-16T06:38:58;17.00;99.90
35129;DHT22;21301;43.626;10.580;2023-05-16T06:41:23;17.00;99.90
35129;DHT22;21301;43.626;10.580;2023-05-16T06:43:51;17.20;99.90
35129;DHT22;21301;43.626;10.580;2023-05-16T06:46:16;17.00;99.90
35129;DHT22;21301;43.626;10.580;2023-05-16T06:48:42;16.90;99.90
35129;DHT22;21301;43.626;10.580;2023-05-16T06:51:08;17.20;99.90
35129;DHT22;21301;43.626;10.580;2023-05-16T06:53:34;17.30;99.90
35129;DHT22;21301;43.626;10.580;2023-05-16T06:56:01;17.40;99.90
35129;DHT22;21301;43.626;10.580;2023-05-16T06:58:27;17.50;99.90
35129;DHT22;21301;43.626;10.580;2023-05-16T07:00:53;17.50;99.90
35129;DHT22;21301;43.626;10.580;2023-05-16T07:03:18;17.30;99.90
35129;DHT22;21301;43.626;10.580;2023-05-16T07:05:44;17.40;99.90
35129;DHT22;21301;43.626;10.580;2023-05-16T07:08:10;17.20;99.90
35129;DHT22;21301;43.626;10.580;2023-05-16T07:10:37;17.30;99.90
35129;DHT22;21301;43.626;10.580;2023-05-16T07:13:03;17.20;99.90
35129;DHT22;21301;43.626;10.580;2023-05-16T07:15:29;17.30;99.90
35129;DHT22;21301;43.626;10.580;2023-05-16T07:17:56;17.30;99.90
35129;DHT22;21301;43.626;10.580;2023-05-16T07:20:21;17.30;99.90
35129;DHT22;21301;43.626;10.580;2023-05-16T07:22:48;17.30;99.90
35129;DHT22;21301;43.626;10.580;2023-05-16T07:25:13;17.60;99.90
35129;DHT22;21301;43.626;10.580;2023-05-16T07:27:40;17.50;99.90
35129;DHT22;21301;43.626;10.580;2023-05-16T07:30:10;17.30;99.90
35129;DHT22;21301;43.626;10.580;2023-05-16T07:32:36;17.30;99.90
35129;DHT22;21301;43.626;10.580;2023-05-16T07:35:03;17.60;99.90
35129;DHT22;21301;43.626;10.580;2023-05-16T07:37:29;17.80;99.90
35129;DHT22;21301;43.626;10.580;2023-05-16T07:39:55;17.80;99.90
35129;DHT22;21301;43.626;10.580;2023-05-16T07:42:21;17.80;99.90
35129;DHT22;21301;43.626;10.580;2023-05-16T07:44:46;18.00;99.90
35129;DHT22;21301;43.626;10.580;2023-05-16T07:47:12;17.70;99.90
35129;DHT22;21301;43.626;10.580;2023-05-16T07:49:38;17.80;99.90
35129;DHT22;21301;43.626;10.580;2023-05-16T07:52:04;17.60;99.90
35129;DHT22;21301;43.626;10.580;2023-05-16T07:54:31;17.70;99.90
35129;DHT22;21301;43.626;10.580;2023-05-16T07:56:58;17.60;99.90
35129;DHT22;21301;43.626;10.580;2023-05-16T07:59:24;17.50;99.90
35129;DHT22;21301;43.626;10.580;2023-05-16T08:01:50;17.50;99.90
35129;DHT22;21301;43.626;10.580;2023-05-16T08:04:16;17.50;99.90
35129;DHT22;21301;43.626;10.580;2023-05-16T08:06:42;17.60;99.90
35129;DHT22;21301;43.626;10.580;2023-05-16T08:09:08;17.50;99.90
35129;DHT22;21301;43.626;10.580;2023-05-16T08:11:34;17.50;99.90
35129;DHT22;21301;43.626;10.580;2023-05-16T08:14:00;17.50;99.90
35129;DHT22;21301;43.626;10.580;2023-05-16T08:16:26;17.70;99.90
35129;DHT22;21301;43.626;10.580;2023-05-16T08:18:52;17.70;99.90
35129;DHT22;21301;43.626;10.580;2023-05-16T08:21:17;17.70;99.90
35129;DHT22;21301;43.626;10.580;2023-05-16T08:23:43;17.80;99.90
35129;DHT22;21301;43.626;10.580;2023-05-16T08:26:09;17.80;99.90
35129;DHT22;21301;43.626;10.580;2023-05-16T08:28:35;17.90;99.90
35129;DHT22;21301;43.626;10.580;2023-05-16T08:31:00;17.90;99.90
35129;DHT22;21301;43.626;10.580;2023-05-16T08:33:26;18.00;99.90
35129;DHT22;21301;43.626;10.580;2023-05-16T08:35:52;18.10;99.90
35129;DHT22;21301;43.626;10.580;2023-05-16T08:38:18;18.10;99.90
35129;DHT22;21301;43.626;10.580;2023-05-16T08:40:45;18.10;99.90
35129;DHT22;21301;43.626;10.580;2023-05-16T08:43:11;18.20;99.90
35129;DHT22;21301;43.626;10.580;2023-05-16T08:45:37;18.20;99.90
35129;DHT22;21301;43.626;10.580;2023-05-16T08:48:04;18.10;99.90
35129;DHT22;21301;43.626;10.580;2023-05-16T08:50:32;18.20;99.90
35129;DHT22;21301;43.626;10.580;2023-05-16T08:53:06;18.30;99.90
35129;DHT22;21301;43.626;10.580;2023-05-16T08:55:34;18.20;99.90
35129;DHT22;21301;43.626;10.580;2023-05-16T08:58:00;18.10;99.90
35129;DHT22;21301;43.626;10.580;2023-05-16T09:00:27;17.90;99.90
35129;DHT22;21301;43.626;10.580;2023-05-16T09:02:53;18.00;99.90
35129;DHT22;21301;43.626;10.580;2023-05-16T09:05:20;17.90;99.90
35129;DHT22;21301;43.626;10.580;2023-05-16T09:07:46;18.00;99.90
35129;DHT22;21301;43.626;10.580;2023-05-16T09:10:12;18.00;99.90
35129;DHT22;21301;43.626;10.580;2023-05-16T09:12:39;18.00;99.90
35129;DHT22;21301;43.626;10.580;2023-05-16T09:15:07;18.10;99.90
35129;DHT22;21301;43.626;10.580;2023-05-16T09:17:44;18.40;99.90
35129;DHT22;21301;43.626;10.580;2023-05-16T09:20:17;18.50;99.90
35129;DHT22;21301;43.626;10.580;2023-05-16T09:22:56;18.50;99.90
35129;DHT22;21301;43.626;10.580;2023-05-16T09:25:24;18.50;99.90
35129;DHT22;21301;43.626;10.580;2023-05-16T09:27:54;18.50;99.90
35129;DHT22;21301;43.626;10.580;2023-05-16T09:30:22;18.50;99.90
35129;DHT22;21301;43.626;10.580;2023-05-16T09:32:52;18.50;99.90
35129;DHT22;21301;43.626;10.580;2023-05-16T09:35:19;18.50;99.90
35129;DHT22;21301;43.626;10.580;2023-05-16T09:37:46;18.50;99.90
35129;DHT22;21301;43.626;10.580;2023-05-16T09:40:13;18.60;99.90
35129;DHT22;21301;43.626;10.580;2023-05-16T09:42:39;18.70;99.90
35129;DHT22;21301;43.626;10.580;2023-05-16T09:45:05;18.80;99.90
35129;DHT22;21301;43.626;10.580;2023-05-16T09:47:31;18.80;99.90
35129;DHT22;21301;43.626;10.580;2023-05-16T09:49:57;19.00;99.90
35129;DHT22;21301;43.626;10.580;2023-05-16T09:52:28;19.50;99.90
35129;DHT22;21301;43.626;10.580;2023-05-16T09:54:54;20.10;99.90
35129;DHT22;21301;43.626;10.580;2023-05-16T09:57:21;20.70;99.90
35129;DHT22;21301;43.626;10.580;2023-05-16T09:59:49;21.20;99.90
35129;DHT22;21301;43.626;10.580;2023-05-16T10:02:15;21.30;99.90
35129;DHT22;21301;43.626;10.580;2023-05-16T10:04:41;21.80;99.90
35129;DHT22;21301;43.626;10.580;2023-05-16T10:07:07;21.80;99.90
35129;DHT22;21301;43.626;10.580;2023-05-16T10:09:35;22.00;99.90
35129;DHT22;21301;43.626;10.580;2023-05-16T10:12:02;22.50;99.90
35129;DHT22;21301;43.626;10.580;2023-05-16T10:14:33;22.30;99.90
35129;DHT22;21301;43.626;10.580;2023-05-16T10:17:00;22.00;99.90
35129;DHT22;21301;43.626;10.580;2023-05-16T10:19:29;21.70;99.90
35129;DHT22;21301;43.626;10.580;2023-05-16T10:21:57;21.30;99.90
35129;DHT22;21301;43.626;10.580;2023-05-16T10:27:03;21.10;99.90
35129;DHT22;21301;43.626;10.580;2023-05-16T10:29:29;21.00;99.90
35129;DHT22;21301;43.626;10.580;2023-05-16T10:31:56;20.90;99.90
35129;DHT22;21301;43.626;10.580;2023-05-16T10:34:22;20.50;99.90
35129;DHT22;21301;43.626;10.580;2023-05-16T10:36:48;20.30;99.90
35129;DHT22;21301;43.626;10.580;2023-05-16T10:39:15;20.10;99.90
35129;DHT22;21301;43.626;10.580;2023-05-16T10:41:42;20.00;99.90
35129;DHT22;21301;43.626;10.580;2023-05-16T10:44:14;20.00;99.90
35129;DHT22;21301;43.626;10.580;2023-05-16T10:46:40;20.00;99.90
35129;DHT22;21301;43.626;10.580;2023-05-16T10:49:23;19.90;99.90
35129;DHT22;21301;43.626;10.580;2023-05-16T10:52:11;20.00;99.90
35129;DHT22;21301;43.626;10.580;2023-05-16T10:54:41;20.20;99.90
35129;DHT22;21301;43.626;10.580;2023-05-16T10:57:21;20.60;99.90
35129;DHT22;21301;43.626;10.580;2023-05-16T10:59:49;20.80;99.90
35129;DHT22;21301;43.626;10.580;2023-05-16T11:02:29;21.20;99.90
35129;DHT22;21301;43.626;10.580;2023-05-16T11:04:59;21.20;99.90
35129;DHT22;21301;43.626;10.580;2023-05-16T11:07:33;21.10;99.90
35129;DHT22;21301;43.626;10.580;2023-05-16T11:10:04;21.20;99.90
35129;DHT22;21301;43.626;10.580;2023-05-16T11:12:50;21.30;99.90
35129;DHT22;21301;43.626;10.580;2023-05-16T11:15:24;21.30;99.90
35129;DHT22;21301;43.626;10.580;2023-05-16T11:17:50;21.20;99.90
35129;DHT22;21301;43.626;10.580;2023-05-16T11:20:45;21.00;99.90
35129;DHT22;21301;43.626;10.580;2023-05-16T11:25:44;21.20;99.90
35129;DHT22;21301;43.626;10.580;2023-05-16T11:28:12;21.10;99.90
35129;DHT22;21301;43.626;10.580;2023-05-16T11:30:43;21.10;99.90
35129;DHT22;21301;43.626;10.580;2023-05-16T11:33:10;21.10;99.90
35129;DHT22;21301;43.626;10.580;2023-05-16T11:35:37;21.00;99.90
35129;DHT22;21301;43.626;10.580;2023-05-16T11:38:03;20.70;99.90
35129;DHT22;21301;43.626;10.580;2023-05-16T11:40:29;20.70;99.90
35129;DHT22;21301;43.626;10.580;2023-05-16T11:42:59;20.70;99.90
35129;DHT22;21301;43.626;10.580;2023-05-16T11:45:25;20.60;99.90
35129;DHT22;21301;43.626;10.580;2023-05-16T11:47:51;20.60;99.90
35129;DHT22;21301;43.626;10.580;2023-05-16T11:50:21;20.50;99.90
35129;DHT22;21301;43.626;10.580;2023-05-16T11:52:51;20.50;99.90
35129;DHT22;21301;43.626;10.580;2023-05-16T11:55:20;20.30;99.90
35129;DHT22;21301;43.626;10.580;2023-05-16T11:57:50;20.20;99.90
35129;DHT22;21301;43.626;10.580;2023-05-16T12:00:18;20.10;99.90
35129;DHT22;21301;43.626;10.580;2023-05-16T12:02:45;20.00;99.90
35129;DHT22;21301;43.626;10.580;2023-05-16T12:05:12;19.80;99.90
35129;DHT22;21301;43.626;10.580;2023-05-16T12:07:39;19.70;99.90
35129;DHT22;21301;43.626;10.580;2023-05-16T12:10:09;19.60;99.90
35129;DHT22;21301;43.626;10.580;2023-05-16T12:12:37;19.40;99.90
35129;DHT22;21301;43.626;10.580;2023-05-16T12:15:04;19.30;99.90
35129;DHT22;21301;43.626;10.580;2023-05-16T12:17:32;19.20;99.90
35129;DHT22;21301;43.626;10.580;2023-05-16T12:19:58;19.30;99.90
35129;DHT22;21301;43.626;10.580;2023-05-16T12:22:24;19.10;99.90
35129;DHT22;21301;43.626;10.580;2023-05-16T12:24:51;19.00;99.90
35129;DHT22;21301;43.626;10.580;2023-05-16T12:27:26;19.00;99.90
35129;DHT22;21301;43.626;10.580;2023-05-16T12:29:52;19.00;99.90
35129;DHT22;21301;43.626;10.580;2023-05-16T12:32:19;19.00;99.90
35129;DHT22;21301;43.626;10.580;2023-05-16T12:34:49;19.10;99.90
35129;DHT22;21301;43.626;10.580;2023-05-16T12:37:21;19.10;99.90
35129;DHT22;21301;43.626;10.580;2023-05-16T12:39:47;18.90;99.90
35129;DHT22;21301;43.626;10.580;2023-05-16T12:42:13;19.00;99.90
35129;DHT22;21301;43.626;10.580;2023-05-16T12:44:39;19.00;99.90
35129;DHT22;21301;43.626;10.580;2023-05-16T12:47:12;19.00;99.90
35129;DHT22;21301;43.626;10.580;2023-05-16T12:49:45;19.10;99.90
35129;DHT22;21301;43.626;10.580;2023-05-16T12:52:17;19.20;99.90
35129;DHT22;21301;43.626;10.580;2023-05-16T12:54:45;19.20;99.90
35129;DHT22;21301;43.626;10.580;2023-05-16T12:57:11;19.30;99.90
35129;DHT22;21301;43.626;10.580;2023-05-16T12:59:36;19.30;99.90
35129;DHT22;21301;43.626;10.580;2023-05-16T13:02:02;19.50;99.90
35129;DHT22;21301;43.626;10.580;2023-05-16T13:04:29;19.60;99.90
35129;DHT22;21301;43.626;10.580;2023-05-16T13:06:55;19.80;99.90
35129;DHT22;21301;43.626;10.580;2023-05-16T13:09:22;19.60;99.90
35129;DHT22;21301;43.626;10.580;2023-05-16T13:11:48;19.70;99.90
35129;DHT22;21301;43.626;10.580;2023-05-16T13:14:15;19.80;99.90
35129;DHT22;21301;43.626;10.580;2023-05-16T13:16:42;19.80;99.90
35129;DHT22;21301;43.626;10.580;2023-05-16T13:19:08;19.60;99.90
35129;DHT22;21301;43.626;10.580;2023-05-16T13:21:34;19.60;99.90
35129;DHT22;21301;43.626;10.580;2023-05-16T13:24:00;19.50;99.90
35129;DHT22;21301;43.626;10.580;2023-05-16T13:26:25;19.40;99.90
35129;DHT22;21301;43.626;10.580;2023-05-16T13:28:52;19.30;99.90
35129;DHT22;21301;43.626;10.580;2023-05-16T13:31:20;19.30;99.90
35129;DHT22;21301;43.626;10.580;2023-05-16T13:33:47;19.20;99.90
35129;DHT22;21301;43.626;10.580;2023-05-16T13:36:13;19.20;99.90
35129;DHT22;21301;43.626;10.580;2023-05-16T13:38:39;19.30;99.90
35129;DHT22;21301;43.626;10.580;2023-05-16T13:41:06;19.50;99.90
35129;DHT22;21301;43.626;10.580;2023-05-16T13:43:31;19.40;99.90
35129;DHT22;21301;43.626;10.580;2023-05-16T13:45:57;19.50;99.90
35129;DHT22;21301;43.626;10.580;2023-05-16T13:48:23;19.50;99.90
35129;DHT22;21301;43.626;10.580;2023-05-16T13:50:49;19.50;99.90
35129;DHT22;21301;43.626;10.580;2023-05-16T13:53:16;19.10;99.90
35129;DHT22;21301;43.626;10.580;2023-05-16T13:55:42;18.90;99.90
35129;DHT22;21301;43.626;10.580;2023-05-16T13:58:08;19.00;99.90
35129;DHT22;21301;43.626;10.580;2023-05-16T14:00:34;19.00;99.90
35129;DHT22;21301;43.626;10.580;2023-05-16T14:03:00;19.20;99.90
35129;DHT22;21301;43.626;10.580;2023-05-16T14:05:25;19.30;99.90
35129;DHT22;21301;43.626;10.580;2023-05-16T14:07:52;19.50;99.90
35129;DHT22;21301;43.626;10.580;2023-05-16T14:10:18;19.40;99.90
35129;DHT22;21301;43.626;10.580;2023-05-16T14:12:43;19.20;99.90
35129;DHT22;21301;43.626;10.580;2023-05-16T14:15:09;18.90;99.90
35129;DHT22;21301;43.626;10.580;2023-05-16T14:17:35;19.00;99.90
35129;DHT22;21301;43.626;10.580;2023-05-16T14:20:01;19.20;99.90
35129;DHT22;21301;43.626;10.580;2023-05-16T14:22:28;19.30;99.90
35129;DHT22;21301;43.626;10.580;2023-05-16T14:24:54;19.30;99.90
35129;DHT22;21301;43.626;10.580;2023-05-16T14:27:19;19.40;99.90
35129;DHT22;21301;43.626;10.580;2023-05-16T14:29:45;19.20;99.90
35129;DHT22;21301;43.626;10.580;2023-05-16T14:32:13;19.20;99.90
35129;DHT22;21301;43.626;10.580;2023-05-16T14:34:39;19.00;99.90
35129;DHT22;21301;43.626;10.580;2023-05-16T14:37:05;19.30;99.90
35129;DHT22;21301;43.626;10.580;2023-05-16T14:39:31;19.40;99.90
35129;DHT22;21301;43.626;10.580;2023-05-16T14:41:57;19.30;99.90
35129;DHT22;21301;43.626;10.580;2023-05-16T14:44:22;19.30;99.90
35129;DHT22;21301;43.626;10.580;2023-05-16T14:46:49;19.40;99.90
35129;DHT22;21301;43.626;10.580;2023-05-16T14:49:16;19.30;99.90
35129;DHT22;21301;43.626;10.580;2023-05-16T14:51:42;19.50;99.90
35129;DHT22;21301;43.626;10.580;2023-05-16T14:54:09;19.50;99.90
35129;DHT22;21301;43.626;10.580;2023-05-16T14:56:35;19.60;99.90
35129;DHT22;21301;43.626;10.580;2023-05-16T14:59:01;19.40;99.90
35129;DHT22;21301;43.626;10.580;2023-05-16T15:01:27;19.40;99.90
35129;DHT22;21301;43.626;10.580;2023-05-16T15:03:52;19.60;99.90
35129;DHT22;21301;43.626;10.580;2023-05-16T15:06:18;19.20;99.90
35129;DHT22;21301;43.626;10.580;2023-05-16T15:08:44;18.80;99.90
35129;DHT22;21301;43.626;10.580;2023-05-16T15:11:10;18.20;99.90
35129;DHT22;21301;43.626;10.580;2023-05-16T15:13:35;18.20;99.90
35129;DHT22;21301;43.626;10.580;2023-05-16T15:16:01;18.10;99.90
35129;DHT22;21301;43.626;10.580;2023-05-16T15:18:28;18.00;99.90
35129;DHT22;21301;43.626;10.580;2023-05-16T15:20:53;18.00;99.90
35129;DHT22;21301;43.626;10.580;2023-05-16T15:23:19;18.20;99.90
35129;DHT22;21301;43.626;10.580;2023-05-16T15:25:45;18.50;99.90
35129;DHT22;21301;43.626;10.580;2023-05-16T15:28:11;18.60;99.90